Time;durP1;ratioP1;P1;durP2;ratioP2;P2;SDS_P1;SDS_P2;PMS_P1;PMS_P2;Temp;Humidity;BMP_temperature;BMP_pressure;BME280_temperature;BME280_humidity;BME280_pressure;Samples;Min_cycle;Max_cycle;Signal;HPM_P1;HPM_P2
2021/07/07 00:01:31;;;;;;;3.15;1.25;;;18.00;99.90;;;;;;5011049;28;20124;-79
2021/07/07 00:04:00;;;;;;;2.90;1.42;;;18.00;99.90;;;;;;5010896;28;20462;-76
2021/07/07 00:06:27;;;;;;;3.70;1.38;;;18.00;99.90;;;;;;5010795;28;20084;-78
2021/07/07 00:08:54;;;;;;;3.33;1.40;;;18.00;99.90;;;;;;5010834;28;20614;-77
2021/07/07 00:11:21;;;;;;;3.00;1.50;;;18.00;99.90;;;;;;5010632;28;20073;-77
2021/07/07 00:13:48;;;;;;;4.32;1.67;;;18.00;99.90;;;;;;5003935;28;20080;-79
2021/07/07 00:16:16;;;;;;;3.72;1.42;;;17.90;99.90;;;;;;5002883;28;20046;-79
2021/07/07 00:18:43;;;;;;;3.30;1.20;;;18.00;99.90;;;;;;5013385;28;20089;-78
2021/07/07 00:21:11;;;;;;;3.42;1.45;;;18.00;99.90;;;;;;5011518;28;20133;-79
2021/07/07 00:23:38;;;;;;;4.65;1.83;;;17.90;99.90;;;;;;5014601;28;20073;-79
2021/07/07 00:26:05;;;;;;;3.65;1.35;;;17.90;99.90;;;;;;5014551;28;20141;-79
2021/07/07 00:28:32;;;;;;;3.08;1.42;;;17.90;99.90;;;;;;5006885;28;20125;-79
2021/07/07 00:30:59;;;;;;;5.00;1.52;;;17.90;99.90;;;;;;5013837;28;20448;-79
2021/07/07 00:33:26;;;;;;;3.40;1.20;;;18.00;99.90;;;;;;5014057;28;20145;-79
2021/07/07 00:35:54;;;;;;;4.05;1.58;;;18.00;99.90;;;;;;5014543;28;20159;-80
2021/07/07 00:38:22;;;;;;;3.45;1.70;;;18.00;99.90;;;;;;5014278;28;20054;-80
2021/07/07 00:40:49;;;;;;;3.80;1.40;;;18.00;99.90;;;;;;5014361;28;20128;-80
2021/07/07 00:43:17;;;;;;;3.55;1.50;;;18.00;99.90;;;;;;5013822;28;20133;-79
2021/07/07 00:45:45;;;;;;;3.05;1.50;;;18.00;99.90;;;;;;5011999;28;20137;-79
2021/07/07 00:48:12;;;;;;;3.47;1.45;;;18.00;99.90;;;;;;5013537;28;20078;-77
2021/07/07 00:50:41;;;;;;;3.53;1.50;;;18.00;99.90;;;;;;5014187;28;20141;-79
2021/07/07 00:53:08;;;;;;;3.85;1.60;;;18.00;99.90;;;;;;5013918;28;20046;-80
2021/07/07 00:55:36;;;;;;;3.30;1.30;;;18.00;99.90;;;;;;5014047;28;20125;-79
2021/07/07 00:58:04;;;;;;;3.95;1.40;;;18.00;99.90;;;;;;5013829;28;20052;-77
2021/07/07 01:00:31;;;;;;;5.47;1.75;;;18.00;99.90;;;;;;5012865;28;20368;-79
2021/07/07 01:03:00;;;;;;;3.88;1.60;;;18.00;99.90;;;;;;5014043;28;20133;-79
2021/07/07 01:05:27;;;;;;;4.18;1.75;;;18.00;99.90;;;;;;5013468;28;20080;-79
2021/07/07 01:07:54;;;;;;;4.45;1.85;;;18.00;99.90;;;;;;5013412;28;20132;-79
2021/07/07 01:10:22;;;;;;;4.15;1.58;;;18.00;99.90;;;;;;5013428;28;20144;-77
2021/07/07 01:12:53;;;;;;;3.70;1.63;;;17.90;99.90;;;;;;5013778;28;20129;-79
2021/07/07 01:15:21;;;;;;;3.22;1.50;;;17.90;99.90;;;;;;5012328;28;20563;-80
2021/07/07 01:17:49;;;;;;;6.00;1.52;;;17.90;99.90;;;;;;5013452;28;20125;-80
2021/07/07 01:20:21;;;;;;;3.20;1.70;;;17.90;99.90;;;;;;5012143;28;20141;-78
2021/07/07 01:22:50;;;;;;;4.18;1.70;;;17.90;99.90;;;;;;5012978;28;20188;-79
2021/07/07 01:25:19;;;;;;;4.78;1.40;;;17.90;99.90;;;;;;5012873;28;20471;-80
2021/07/07 01:27:47;;;;;;;3.50;1.75;;;17.90;99.90;;;;;;5013269;28;20052;-75
2021/07/07 01:30:17;;;;;;;3.53;1.58;;;18.00;99.90;;;;;;5012847;28;20456;-79
2021/07/07 01:32:46;;;;;;;3.38;1.52;;;18.00;99.90;;;;;;5012154;28;20137;-79
2021/07/07 01:35:15;;;;;;;3.88;1.80;;;18.00;99.90;;;;;;5000627;28;20472;-78
2021/07/07 01:37:43;;;;;;;12.23;1.80;;;18.00;99.90;;;;;;5009631;28;20562;-79
2021/07/07 01:40:15;;;;;;;3.60;1.50;;;17.90;99.90;;;;;;5009384;28;20136;-79
2021/07/07 01:42:43;;;;;;;3.30;1.40;;;17.90;99.90;;;;;;5001987;28;20124;-78
2021/07/07 01:45:12;;;;;;;2.70;1.35;;;18.00;99.90;;;;;;5009208;28;20141;-79
2021/07/07 01:47:39;;;;;;;3.80;1.42;;;18.00;99.90;;;;;;5009608;28;20129;-80
2021/07/07 01:50:10;;;;;;;3.60;1.50;;;18.00;99.90;;;;;;5008592;28;20582;-79
2021/07/07 01:52:38;;;;;;;3.78;1.40;;;18.00;99.90;;;;;;5009603;28;20120;-80
2021/07/07 01:55:07;;;;;;;2.40;1.30;;;18.00;99.90;;;;;;5009686;28;20444;-80
2021/07/07 01:57:44;;;;;;;3.22;1.60;;;18.00;99.90;;;;;;5000682;28;20069;-79
2021/07/07 02:00:14;;;;;;;3.60;1.48;;;18.00;99.90;;;;;;5007296;28;20483;-77
2021/07/07 02:02:42;;;;;;;4.15;1.50;;;18.00;99.90;;;;;;5009523;28;20133;-80
2021/07/07 02:05:11;;;;;;;4.97;1.70;;;18.00;99.90;;;;;;5009516;28;20136;-80
2021/07/07 02:07:38;;;;;;;3.97;1.67;;;17.90;99.90;;;;;;5009397;28;20046;-78
2021/07/07 02:10:09;;;;;;;3.58;1.50;;;17.90;99.90;;;;;;5009110;28;20137;-80
2021/07/07 02:12:38;;;;;;;3.30;1.52;;;17.90;99.90;;;;;;5009564;28;20134;-77
2021/07/07 02:15:09;;;;;;;3.90;1.70;;;17.90;99.90;;;;;;5008405;28;20646;-79
2021/07/07 02:17:37;;;;;;;4.47;1.80;;;17.80;99.90;;;;;;5008493;28;20049;-79
2021/07/07 02:20:07;;;;;;;5.13;1.55;;;17.80;99.90;;;;;;5009013;28;20136;-77
2021/07/07 02:22:34;;;;;;;3.05;1.50;;;17.80;99.90;;;;;;5004167;28;20100;-78
2021/07/07 02:25:01;;;;;;;4.50;1.70;;;17.80;99.90;;;;;;5012913;28;20050;-78
2021/07/07 02:27:28;;;;;;;4.97;1.60;;;17.80;99.90;;;;;;5014632;28;20073;-78
2021/07/07 02:29:56;;;;;;;3.53;1.85;;;17.80;99.90;;;;;;5013265;28;20531;-78
2021/07/07 02:32:23;;;;;;;3.63;1.65;;;17.80;99.90;;;;;;5012595;28;20148;-79
2021/07/07 02:34:50;;;;;;;4.43;2.40;;;17.80;99.90;;;;;;5012685;28;20124;-79
2021/07/07 02:37:18;;;;;;;4.82;1.90;;;17.70;99.90;;;;;;5012225;28;20133;-79
2021/07/07 02:39:45;;;;;;;3.80;1.70;;;17.70;99.90;;;;;;5013247;28;20137;-77
2021/07/07 02:42:12;;;;;;;5.47;1.67;;;17.60;99.90;;;;;;5016289;28;20132;-80
2021/07/07 02:44:39;;;;;;;3.72;1.60;;;17.60;99.90;;;;;;5015644;28;20555;-80
2021/07/07 02:47:07;;;;;;;4.22;2.00;;;17.60;99.90;;;;;;5016394;28;20137;-78
2021/07/07 02:49:34;;;;;;;4.00;1.60;;;17.60;99.90;;;;;;5009085;28;20559;-80
2021/07/07 02:52:01;;;;;;;3.20;1.40;;;17.60;99.90;;;;;;5016543;28;20125;-78
2021/07/07 02:54:28;;;;;;;3.45;1.70;;;17.60;99.90;;;;;;5016206;28;20068;-80
2021/07/07 02:56:55;;;;;;;3.72;1.70;;;17.60;99.90;;;;;;5016284;28;20145;-81
2021/07/07 02:59:22;;;;;;;3.65;1.70;;;17.70;99.90;;;;;;5015342;28;20161;-79
2021/07/07 03:01:49;;;;;;;3.67;1.70;;;17.70;99.90;;;;;;5009898;28;20129;-80
2021/07/07 03:04:18;;;;;;;3.63;1.77;;;17.70;99.90;;;;;;5012749;28;20508;-80
2021/07/07 03:06:45;;;;;;;5.15;2.30;;;17.70;99.90;;;;;;5013922;28;20499;-78
2021/07/07 03:09:12;;;;;;;3.22;1.65;;;17.70;99.90;;;;;;5011397;28;20060;-79
2021/07/07 03:11:39;;;;;;;3.53;1.80;;;17.70;99.90;;;;;;5012404;28;20113;-77
2021/07/07 03:14:06;;;;;;;5.72;1.95;;;17.70;99.90;;;;;;5006704;28;20052;-77
2021/07/07 03:16:34;;;;;;;3.72;1.80;;;17.60;99.90;;;;;;5012759;28;20156;-78
2021/07/07 03:19:01;;;;;;;4.43;1.92;;;17.60;99.90;;;;;;5012304;28;20037;-79
2021/07/07 03:21:29;;;;;;;4.47;2.15;;;17.60;99.90;;;;;;5012255;28;20136;-79
2021/07/07 03:23:56;;;;;;;5.82;2.00;;;17.60;99.90;;;;;;5012224;28;20046;-78
2021/07/07 03:26:23;;;;;;;4.40;2.38;;;17.50;99.90;;;;;;5011699;28;20133;-79
2021/07/07 03:28:50;;;;;;;4.22;2.00;;;17.50;99.90;;;;;;5005841;28;20050;-79
2021/07/07 03:31:17;;;;;;;3.50;2.10;;;17.50;99.90;;;;;;5010807;28;20085;-79
2021/07/07 03:33:44;;;;;;;6.07;2.53;;;17.50;99.90;;;;;;5012382;28;20089;-77
2021/07/07 03:36:11;;;;;;;6.40;3.25;;;17.50;99.90;;;;;;5011961;28;20052;-79
2021/07/07 03:38:40;;;;;;;9.20;4.88;;;17.50;99.90;;;;;;5011687;28;20137;-80
2021/07/07 03:41:07;;;;;;;9.00;4.57;;;17.50;99.90;;;;;;5012024;28;20151;-80
2021/07/07 03:43:34;;;;;;;6.05;2.90;;;17.50;99.90;;;;;;5012089;28;20051;-79
2021/07/07 03:46:01;;;;;;;4.20;2.22;;;17.50;99.90;;;;;;5011851;28;20041;-78
2021/07/07 03:48:28;;;;;;;3.60;1.98;;;17.60;99.90;;;;;;5010471;28;20044;-78
2021/07/07 03:50:55;;;;;;;3.72;2.17;;;17.60;99.90;;;;;;5010185;28;20160;-78
2021/07/07 03:53:22;;;;;;;3.17;1.70;;;17.60;99.90;;;;;;5011013;28;20133;-75
2021/07/07 03:55:51;;;;;;;4.50;1.90;;;17.70;99.90;;;;;;5011966;28;20137;-77
2021/07/07 03:58:18;;;;;;;5.38;2.38;;;17.70;99.90;;;;;;5011784;28;20125;-77
2021/07/07 04:00:45;;;;;;;3.58;1.92;;;17.70;99.90;;;;;;5011365;28;20137;-77
2021/07/07 04:03:12;;;;;;;4.78;2.03;;;17.70;99.90;;;;;;5012676;28;20125;-78
2021/07/07 04:05:40;;;;;;;3.35;1.95;;;17.70;99.90;;;;;;5010176;28;20571;-79
2021/07/07 04:08:07;;;;;;;4.85;2.10;;;17.60;99.90;;;;;;5011470;28;20559;-78
2021/07/07 04:10:34;;;;;;;3.83;2.03;;;17.70;99.90;;;;;;5009049;28;20096;-79
2021/07/07 04:13:03;;;;;;;4.22;2.00;;;17.70;99.90;;;;;;5014868;28;20133;-79
2021/07/07 04:15:30;;;;;;;4.85;1.80;;;17.70;99.90;;;;;;5007352;28;20092;-77
2021/07/07 04:17:57;;;;;;;3.70;1.60;;;17.70;99.90;;;;;;5014609;28;20124;-79
2021/07/07 04:20:24;;;;;;;3.30;1.60;;;17.70;99.90;;;;;;5014588;28;20158;-79
2021/07/07 04:22:52;;;;;;;4.43;2.05;;;17.70;99.90;;;;;;5012740;28;20070;-79
2021/07/07 04:25:19;;;;;;;6.10;2.17;;;17.70;99.90;;;;;;5011963;28;20129;-79
2021/07/07 04:27:47;;;;;;;3.83;2.00;;;17.70;99.90;;;;;;5011661;28;20137;-80
2021/07/07 04:30:19;;;;;;;3.25;1.77;;;17.70;99.90;;;;;;4995144;28;20061;-79
2021/07/07 04:32:47;;;;;;;3.20;1.67;;;17.70;99.90;;;;;;4995468;28;20129;-79
2021/07/07 04:35:17;;;;;;;3.45;1.80;;;17.70;99.90;;;;;;4995324;28;20149;-79
2021/07/07 04:37:45;;;;;;;3.47;1.85;;;17.70;99.90;;;;;;4995428;28;20060;-79
2021/07/07 04:40:14;;;;;;;4.28;1.98;;;17.80;99.90;;;;;;4995196;28;20050;-80
2021/07/07 04:42:41;;;;;;;3.92;2.15;;;17.80;99.90;;;;;;4996258;28;20125;-79
2021/07/07 04:45:10;;;;;;;3.20;1.98;;;17.80;99.90;;;;;;4995213;28;20138;-77
2021/07/07 04:47:38;;;;;;;4.47;2.00;;;17.80;99.90;;;;;;4994929;28;20543;-79
2021/07/07 04:50:07;;;;;;;4.13;2.25;;;17.80;99.90;;;;;;4995163;28;20054;-78
2021/07/07 04:52:34;;;;;;;5.13;2.13;;;17.80;99.90;;;;;;4994912;28;20491;-79
2021/07/07 04:55:04;;;;;;;3.97;2.05;;;17.70;99.90;;;;;;4995742;28;20081;-77
2021/07/07 04:57:40;;;;;;;4.05;2.10;;;17.70;99.90;;;;;;5001442;28;20125;-78
2021/07/07 05:00:10;;;;;;;5.10;2.30;;;17.80;99.90;;;;;;5015961;28;20077;-78
2021/07/07 05:02:41;;;;;;;3.65;2.10;;;17.80;99.90;;;;;;5014339;28;20533;-78
2021/07/07 05:05:10;;;;;;;4.35;2.00;;;17.70;99.90;;;;;;5014563;28;20198;-78
2021/07/07 05:07:37;;;;;;;3.42;2.05;;;17.80;99.90;;;;;;5014328;28;20480;-79
2021/07/07 05:10:06;;;;;;;4.72;2.42;;;17.80;99.90;;;;;;5014181;28;20058;-79
2021/07/07 05:12:33;;;;;;;3.67;2.10;;;17.90;99.90;;;;;;5007173;28;20126;-78
2021/07/07 05:15:01;;;;;;;5.45;2.25;;;17.90;99.90;;;;;;4994475;28;20046;-79
2021/07/07 05:17:29;;;;;;;4.30;2.50;;;18.00;99.90;;;;;;4994608;28;20133;-79
2021/07/07 05:19:58;;;;;;;4.28;2.40;;;18.00;99.90;;;;;;4994309;28;20137;-79
2021/07/07 05:22:26;;;;;;;3.97;2.70;;;18.00;99.90;;;;;;4994567;28;20085;-80
2021/07/07 05:24:53;;;;;;;4.45;2.58;;;18.00;99.90;;;;;;4994272;28;20129;-79
2021/07/07 05:27:20;;;;;;;3.72;2.10;;;18.00;99.90;;;;;;5001622;28;20501;-77
2021/07/07 05:29:47;;;;;;;5.68;2.72;;;18.00;99.90;;;;;;5014063;28;20133;-80
2021/07/07 05:32:20;;;;;;;4.32;2.45;;;18.00;99.90;;;;;;5014063;28;20141;-79
2021/07/07 05:34:47;;;;;;;4.03;2.28;;;18.00;99.90;;;;;;5013881;28;20050;-79
2021/07/07 05:37:20;;;;;;;4.43;2.60;;;18.00;99.90;;;;;;5013950;28;20140;-79
2021/07/07 05:39:48;;;;;;;4.25;2.22;;;18.00;99.90;;;;;;5013671;28;20561;-79
2021/07/07 05:42:17;;;;;;;5.05;2.50;;;18.00;99.90;;;;;;5005169;28;20507;-77
2021/07/07 05:44:45;;;;;;;4.25;2.42;;;18.00;99.90;;;;;;4993945;28;20050;-79
2021/07/07 05:47:12;;;;;;;4.65;2.78;;;18.00;99.90;;;;;;4994102;28;20050;-79
2021/07/07 05:49:39;;;;;;;4.78;3.10;;;18.00;99.90;;;;;;4994180;28;20129;-79
2021/07/07 05:52:07;;;;;;;4.10;2.58;;;18.00;99.90;;;;;;4994024;28;20104;-79
2021/07/07 05:54:35;;;;;;;5.15;2.78;;;18.00;99.90;;;;;;4993925;28;20555;-79
2021/07/07 05:57:03;;;;;;;4.85;2.75;;;17.90;99.90;;;;;;4994839;28;20133;-79
2021/07/07 05:59:30;;;;;;;4.70;2.90;;;17.90;99.90;;;;;;4993821;28;20081;-79
2021/07/07 06:01:57;;;;;;;3.70;2.38;;;17.80;99.90;;;;;;4993768;28;20121;-79
2021/07/07 06:04:24;;;;;;;4.82;2.30;;;17.80;99.90;;;;;;4993822;28;20138;-79
2021/07/07 06:06:51;;;;;;;3.75;2.10;;;17.80;99.90;;;;;;4993583;28;20085;-80
2021/07/07 06:09:18;;;;;;;5.07;2.25;;;17.80;99.90;;;;;;4994534;28;20133;-78
2021/07/07 06:11:47;;;;;;;3.55;1.73;;;17.80;99.90;;;;;;4993533;28;20138;-77
2021/07/07 06:14:14;;;;;;;2.63;1.40;;;17.80;99.90;;;;;;4993282;28;20053;-79
2021/07/07 06:16:41;;;;;;;4.40;1.40;;;17.70;99.90;;;;;;4993517;28;20046;-79
2021/07/07 06:19:08;;;;;;;2.40;1.20;;;17.70;99.90;;;;;;4993563;28;20556;-79
2021/07/07 06:21:35;;;;;;;2.90;1.23;;;17.70;99.90;;;;;;4993794;28;20134;-76
2021/07/07 06:24:02;;;;;;;2.85;1.27;;;17.70;99.90;;;;;;4993416;28;20105;-77
2021/07/07 06:26:31;;;;;;;3.03;1.20;;;17.70;99.90;;;;;;4995352;28;20479;-79
2021/07/07 06:28:59;;;;;;;4.07;1.52;;;17.70;99.90;;;;;;5013727;28;20096;-79
2021/07/07 06:31:26;;;;;;;2.47;1.15;;;17.70;99.90;;;;;;5013092;28;20049;-80
2021/07/07 06:33:53;;;;;;;2.35;1.08;;;17.80;99.90;;;;;;5013000;28;20472;-78
2021/07/07 06:36:20;;;;;;;3.25;1.08;;;17.80;99.90;;;;;;5013217;28;20129;-77
2021/07/07 06:38:47;;;;;;;3.88;1.35;;;17.90;99.90;;;;;;5013162;28;20132;-77
2021/07/07 06:41:14;;;;;;;3.15;1.40;;;17.90;99.90;;;;;;5021539;28;20077;-77
2021/07/07 06:43:41;;;;;;;2.55;1.35;;;17.90;99.90;;;;;;5013539;28;20050;-79
2021/07/07 06:46:10;;;;;;;3.17;1.20;;;17.90;99.90;;;;;;5012867;28;20053;-77
2021/07/07 06:48:37;;;;;;;3.47;1.20;;;17.90;99.90;;;;;;5017701;28;20084;-80
2021/07/07 06:51:04;;;;;;;2.70;1.20;;;17.80;99.90;;;;;;5014522;28;20042;-78
2021/07/07 06:53:31;;;;;;;2.28;1.00;;;17.80;99.90;;;;;;5013143;28;20069;-76
2021/07/07 06:55:58;;;;;;;2.60;1.10;;;17.80;99.90;;;;;;5011815;28;20133;-79
2021/07/07 06:58:25;;;;;;;2.90;1.20;;;17.80;99.90;;;;;;4993363;28;20482;-80
2021/07/07 07:00:52;;;;;;;2.50;1.10;;;17.70;99.90;;;;;;4993064;28;20050;-78
2021/07/07 07:03:20;;;;;;;2.30;1.10;;;17.70;99.90;;;;;;4993226;28;20562;-80
2021/07/07 07:05:47;;;;;;;2.97;1.20;;;17.70;99.90;;;;;;4994028;28;20129;-78
2021/07/07 07:08:16;;;;;;;2.50;1.00;;;17.70;99.90;;;;;;4993237;28;20477;-79
2021/07/07 07:10:43;;;;;;;2.63;1.35;;;17.70;99.90;;;;;;4993110;28;20575;-79
2021/07/07 07:13:10;;;;;;;2.35;1.10;;;17.80;99.90;;;;;;4993230;28;20050;-80
2021/07/07 07:15:37;;;;;;;2.70;1.20;;;17.80;99.90;;;;;;4993120;28;20654;-80
2021/07/07 07:18:05;;;;;;;3.00;1.15;;;17.90;99.90;;;;;;4994710;28;20077;-79
2021/07/07 07:20:33;;;;;;;2.25;1.10;;;18.00;99.90;;;;;;4994196;28;20133;-79
2021/07/07 07:23:02;;;;;;;2.83;1.20;;;18.00;99.90;;;;;;4993050;28;20050;-76
2021/07/07 07:25:29;;;;;;;2.78;1.08;;;18.10;99.90;;;;;;4993000;28;20049;-78
2021/07/07 07:27:56;;;;;;;1.95;0.90;;;18.10;99.90;;;;;;4994665;28;20050;-77
2021/07/07 07:30:23;;;;;;;2.35;0.93;;;18.10;99.90;;;;;;4996563;28;20145;-76
2021/07/07 07:32:51;;;;;;;2.88;1.02;;;18.20;99.90;;;;;;4996388;28;20081;-78
2021/07/07 07:35:21;;;;;;;2.13;1.00;;;18.20;99.90;;;;;;4997526;28;20566;-78
2021/07/07 07:37:53;;;;;;;2.08;0.80;;;18.30;99.90;;;;;;4996494;28;20138;-80
2021/07/07 07:40:24;;;;;;;2.47;1.13;;;18.30;99.90;;;;;;4996115;28;20081;-78
2021/07/07 07:42:52;;;;;;;3.30;1.10;;;18.30;99.90;;;;;;4996529;28;20053;-79
2021/07/07 07:45:19;;;;;;;2.35;0.90;;;18.40;99.90;;;;;;4996465;28;20435;-78
2021/07/07 07:47:46;;;;;;;2.00;0.95;;;18.40;99.90;;;;;;4996312;28;20129;-79
2021/07/07 07:50:16;;;;;;;1.75;0.70;;;18.40;99.90;;;;;;4997308;28;20073;-78
2021/07/07 07:52:43;;;;;;;1.75;0.80;;;18.40;99.90;;;;;;4996198;28;20398;-79
2021/07/07 07:55:13;;;;;;;2.40;0.90;;;18.40;99.90;;;;;;4996009;28;20081;-77
2021/07/07 07:57:41;;;;;;;2.70;0.90;;;18.40;99.90;;;;;;4996330;28;20050;-80
2021/07/07 08:00:11;;;;;;;2.35;1.05;;;18.40;99.90;;;;;;4995969;28;20133;-78
2021/07/07 08:02:38;;;;;;;1.95;0.80;;;18.50;99.90;;;;;;4996004;28;20133;-77
2021/07/07 08:05:07;;;;;;;2.08;0.90;;;18.40;99.90;;;;;;4997088;28;20572;-80
2021/07/07 08:07:34;;;;;;;2.53;1.20;;;18.50;99.90;;;;;;4995721;28;20042;-78
2021/07/07 08:10:02;;;;;;;2.20;1.10;;;18.40;99.90;;;;;;4995515;28;20145;-80
2021/07/07 08:12:30;;;;;;;2.38;0.95;;;18.40;99.90;;;;;;4995824;28;20137;-75
2021/07/07 08:14:57;;;;;;;2.20;0.90;;;18.40;99.90;;;;;;4998024;28;20057;-79
2021/07/07 08:17:24;;;;;;;2.55;0.93;;;18.40;99.90;;;;;;4995507;28;20129;-80
2021/07/07 08:19:51;;;;;;;2.80;1.20;;;18.40;99.90;;;;;;4995435;28;20133;-79
2021/07/07 08:22:19;;;;;;;4.05;1.40;;;18.40;99.90;;;;;;4995474;28;20125;-79
2021/07/07 08:24:47;;;;;;;3.40;1.48;;;18.30;99.90;;;;;;5013609;28;20086;-76
2021/07/07 08:27:14;;;;;;;3.17;1.35;;;18.20;99.90;;;;;;5013293;28;20137;-79
2021/07/07 08:29:42;;;;;;;3.13;1.50;;;18.10;99.90;;;;;;5009632;28;20483;-78
2021/07/07 08:32:09;;;;;;;3.20;1.30;;;18.00;99.90;;;;;;5014707;28;20133;-77
2021/07/07 08:34:38;;;;;;;3.70;1.60;;;18.00;99.90;;;;;;5014873;28;20149;-77
2021/07/07 08:37:05;;;;;;;3.17;1.33;;;17.90;99.90;;;;;;5014827;28;20543;-77
2021/07/07 08:39:33;;;;;;;4.70;1.63;;;17.90;99.90;;;;;;5013880;28;20559;-77
2021/07/07 08:42:00;;;;;;;2.83;1.40;;;17.90;99.90;;;;;;5010781;28;20136;-78
2021/07/07 08:44:27;;;;;;;2.88;1.40;;;17.90;99.90;;;;;;5002114;28;20571;-78
2021/07/07 08:46:56;;;;;;;3.83;1.40;;;18.00;99.90;;;;;;5009794;28;20049;-77
2021/07/07 08:49:23;;;;;;;3.60;1.33;;;18.00;99.90;;;;;;5011204;28;20134;-77
2021/07/07 08:51:50;;;;;;;3.20;1.33;;;18.00;99.90;;;;;;5011280;28;20052;-80
2021/07/07 08:54:19;;;;;;;2.38;1.10;;;18.00;99.90;;;;;;5005348;28;20080;-78
2021/07/07 08:56:47;;;;;;;3.10;1.33;;;18.00;99.90;;;;;;4991658;28;20050;-79
2021/07/07 08:59:17;;;;;;;3.30;1.25;;;18.10;99.90;;;;;;4992274;28;20154;-78
2021/07/07 09:02:07;;;;;;;3.25;1.00;;;18.10;99.90;;;;;;5000377;28;20137;-77
2021/07/07 09:04:37;;;;;;;2.83;1.30;;;18.30;99.90;;;;;;5007736;28;20125;-79
2021/07/07 09:07:06;;;;;;;3.25;1.17;;;18.30;99.90;;;;;;5011315;28;20053;-79
2021/07/07 09:09:42;;;;;;;2.50;1.10;;;18.40;99.90;;;;;;5011421;28;20129;-79
2021/07/07 09:12:23;;;;;;;2.00;0.90;;;18.50;99.90;;;;;;5011355;28;20137;-79
2021/07/07 09:14:52;;;;;;;2.50;1.13;;;18.50;99.90;;;;;;5011198;28;20053;-78
2021/07/07 09:17:22;;;;;;;1.63;0.77;;;18.50;99.90;;;;;;5009380;28;20136;-77
2021/07/07 09:19:49;;;;;;;2.15;0.82;;;18.60;99.90;;;;;;5011157;28;20140;-77
2021/07/07 09:22:17;;;;;;;2.53;0.82;;;18.70;99.90;;;;;;5011221;28;20057;-79
2021/07/07 09:24:48;;;;;;;1.65;0.77;;;18.70;99.90;;;;;;5011637;28;20046;-78
2021/07/07 09:27:17;;;;;;;1.92;0.75;;;18.70;99.90;;;;;;5011496;28;20677;-78
2021/07/07 09:29:49;;;;;;;1.95;0.82;;;18.80;99.90;;;;;;5012079;28;20140;-79
2021/07/07 09:32:20;;;;;;;5.50;2.03;;;18.80;99.90;;;;;;4996777;28;20050;-78
2021/07/07 09:34:52;;;;;;;7.03;3.38;;;18.80;99.90;;;;;;4993836;28;20498;-77
2021/07/07 09:37:25;;;;;;;5.82;2.67;;;18.90;99.90;;;;;;4997945;28;20573;-77
2021/07/07 09:39:55;;;;;;;4.25;1.70;;;18.90;99.90;;;;;;4999267;28;20081;-78
2021/07/07 09:42:27;;;;;;;2.05;0.95;;;19.00;99.90;;;;;;4991616;28;20130;-76
2021/07/07 09:44:57;;;;;;;2.30;0.80;;;19.10;99.90;;;;;;4992165;28;20555;-79
2021/07/07 09:47:24;;;;;;;1.70;0.80;;;19.10;99.90;;;;;;5011526;28;20050;-78
2021/07/07 09:49:53;;;;;;;1.33;0.60;;;19.10;99.90;;;;;;5010550;28;20069;-80
2021/07/07 09:52:23;;;;;;;1.13;0.60;;;19.20;99.90;;;;;;5011532;28;20448;-80
2021/07/07 09:54:50;;;;;;;1.90;0.80;;;19.20;99.90;;;;;;5010100;28;20141;-81
2021/07/07 09:57:20;;;;;;;1.58;0.70;;;19.30;99.90;;;;;;5010259;28;20068;-79
2021/07/07 09:59:48;;;;;;;2.08;0.90;;;19.50;99.90;;;;;;4998757;28;20116;-78
2021/07/07 10:02:15;;;;;;;1.45;0.65;;;19.50;99.90;;;;;;5010765;28;20116;-80
2021/07/07 10:04:44;;;;;;;2.20;0.70;;;19.60;99.90;;;;;;4999752;28;20046;-74
2021/07/07 10:07:14;;;;;;;1.73;0.70;;;19.70;99.90;;;;;;4991213;28;20093;-79
2021/07/07 10:09:44;;;;;;;2.33;0.73;;;19.80;99.90;;;;;;4990835;28;20461;-80
2021/07/07 10:12:13;;;;;;;1.85;0.90;;;19.90;99.90;;;;;;4990211;28;20081;-80
2021/07/07 10:14:41;;;;;;;1.38;0.65;;;19.90;99.90;;;;;;4990610;28;20507;-78
2021/07/07 10:17:08;;;;;;;1.67;0.60;;;20.00;99.90;;;;;;5004168;28;20487;-79
2021/07/07 10:19:37;;;;;;;1.48;0.70;;;20.10;99.90;;;;;;5010921;28;20050;-77
2021/07/07 10:22:05;;;;;;;1.70;0.80;;;20.20;99.90;;;;;;5011179;28;20057;-77
2021/07/07 10:24:35;;;;;;;2.08;0.90;;;20.20;99.90;;;;;;5012112;28;20078;-78
2021/07/07 10:27:06;;;;;;;2.08;0.80;;;20.20;99.90;;;;;;5011368;28;20503;-78
2021/07/07 10:29:36;;;;;;;1.60;0.70;;;20.20;99.90;;;;;;5011237;28;20137;-80
2021/07/07 10:32:06;;;;;;;2.17;0.90;;;20.20;99.90;;;;;;5011955;28;20113;-77
2021/07/07 10:34:33;;;;;;;2.15;0.80;;;20.20;99.90;;;;;;5011540;28;20046;-78
2021/07/07 10:37:02;;;;;;;1.55;0.73;;;20.20;99.90;;;;;;5010571;28;20093;-79
2021/07/07 10:39:31;;;;;;;1.85;0.90;;;20.20;99.90;;;;;;5011181;28;20042;-77
2021/07/07 10:42:02;;;;;;;1.85;0.80;;;20.10;99.90;;;;;;5011192;28;20053;-78
2021/07/07 10:44:53;;;;;;;1.55;0.70;;;20.10;99.90;;;;;;5009001;28;20144;-78
2021/07/07 10:47:36;;;;;;;1.75;0.80;;;20.10;99.90;;;;;;5009083;28;20050;-78
2021/07/07 10:50:06;;;;;;;2.45;0.90;;;20.10;99.90;;;;;;5010181;28;20490;-79
2021/07/07 10:52:44;;;;;;;1.42;0.70;;;20.10;99.90;;;;;;5012786;28;20131;-79
2021/07/07 10:55:14;;;;;;;5.03;2.47;;;20.10;99.90;;;;;;5011419;28;20069;-78
2021/07/07 10:57:45;;;;;;;3.20;1.55;;;20.20;99.90;;;;;;4997684;28;20050;-79
2021/07/07 11:00:31;;;;;;;3.08;1.00;;;20.30;99.90;;;;;;4990771;28;20046;-77
2021/07/07 11:03:32;;;;;;;1.90;0.90;;;20.20;99.90;;;;;;4995684;28;20061;-77
2021/07/07 11:06:27;;;;;;;1.50;0.70;;;20.20;99.90;;;;;;4988883;28;20058;-78
2021/07/07 11:09:14;;;;;;;1.98;0.88;;;20.10;99.90;;;;;;4994519;28;20360;-77
2021/07/07 11:11:45;;;;;;;1.75;0.80;;;20.10;99.90;;;;;;4992754;28;20058;-76
2021/07/07 11:14:28;;;;;;;2.83;1.00;;;20.10;99.90;;;;;;4994299;28;20050;-79
2021/07/07 11:17:00;;;;;;;1.95;0.80;;;20.10;99.90;;;;;;4993809;28;20046;-79
2021/07/07 11:19:46;;;;;;;2.03;0.90;;;20.10;99.90;;;;;;4994726;28;20069;-77
2021/07/07 11:22:15;;;;;;;2.17;0.98;;;20.10;99.90;;;;;;5008936;28;20057;-78
2021/07/07 11:24:49;;;;;;;1.98;1.10;;;20.10;99.90;;;;;;5012992;28;20058;-78
2021/07/07 11:27:17;;;;;;;1.87;1.10;;;20.10;99.90;;;;;;5010426;28;20077;-77
2021/07/07 11:29:46;;;;;;;2.72;1.13;;;20.10;99.90;;;;;;5013115;28;20121;-78
2021/07/07 11:32:31;;;;;;;1.55;0.70;;;20.10;99.90;;;;;;5013412;28;20050;-79
2021/07/07 11:35:01;;;;;;;1.88;0.82;;;20.10;99.90;;;;;;5013422;28;20475;-78
2021/07/07 11:37:31;;;;;;;1.83;0.80;;;20.10;99.90;;;;;;5013425;28;20078;-78
2021/07/07 11:40:06;;;;;;;2.35;0.80;;;20.20;99.90;;;;;;5009990;28;20121;-78
2021/07/07 11:42:34;;;;;;;2.22;1.10;;;20.20;99.90;;;;;;4993648;28;20445;-79
2021/07/07 11:45:03;;;;;;;1.77;0.90;;;20.20;99.90;;;;;;4993647;28;20078;-78
2021/07/07 11:47:34;;;;;;;1.90;0.93;;;20.20;99.90;;;;;;4993510;28;20051;-77
2021/07/07 11:50:07;;;;;;;3.17;1.00;;;20.30;99.90;;;;;;4993453;28;20101;-78
2021/07/07 11:52:34;;;;;;;2.25;1.00;;;20.30;99.90;;;;;;4994202;28;20054;-78
2021/07/07 11:55:01;;;;;;;2.90;0.90;;;20.30;99.90;;;;;;4993436;28;20129;-78
2021/07/07 11:57:29;;;;;;;1.90;0.90;;;20.30;99.90;;;;;;4993049;28;20176;-76
2021/07/07 11:59:56;;;;;;;2.28;0.90;;;20.30;99.90;;;;;;4992834;28;20580;-78
2021/07/07 12:02:24;;;;;;;2.38;1.00;;;20.40;99.90;;;;;;4993136;28;20145;-79
2021/07/07 12:04:51;;;;;;;3.00;1.40;;;20.40;99.90;;;;;;4999978;28;20052;-77
2021/07/07 12:07:21;;;;;;;6.43;3.42;;;20.50;99.90;;;;;;5009753;28;20154;-78
2021/07/07 12:09:49;;;;;;;6.35;3.80;;;20.50;99.90;;;;;;4995998;28;20062;-79
2021/07/07 12:12:16;;;;;;;4.25;2.30;;;20.60;99.90;;;;;;4995168;28;20485;-77
2021/07/07 12:14:43;;;;;;;3.60;1.50;;;20.60;99.90;;;;;;4995980;28;20125;-76
2021/07/07 12:17:10;;;;;;;3.67;1.40;;;20.60;99.90;;;;;;4994444;28;20085;-78
2021/07/07 12:19:38;;;;;;;2.60;1.30;;;20.70;99.90;;;;;;4992614;28;20042;-76
2021/07/07 12:22:09;;;;;;;2.60;1.10;;;20.70;99.90;;;;;;4992765;28;20496;-77
2021/07/07 12:24:39;;;;;;;2.47;1.00;;;20.70;99.90;;;;;;4994339;28;20138;-76
2021/07/07 12:27:09;;;;;;;2.65;0.88;;;20.80;99.90;;;;;;5001964;28;20053;-79
2021/07/07 12:29:38;;;;;;;2.35;1.00;;;20.90;99.90;;;;;;5015204;28;20541;-78
2021/07/07 12:32:08;;;;;;;3.65;1.15;;;20.90;99.90;;;;;;4998022;28;20051;-76
2021/07/07 12:34:39;;;;;;;1.77;0.95;;;20.90;99.90;;;;;;4996962;28;20134;-77
2021/07/07 12:37:10;;;;;;;2.50;1.13;;;21.00;99.90;;;;;;4999569;28;20054;-77
2021/07/07 12:39:43;;;;;;;3.15;1.13;;;21.10;99.90;;;;;;4995712;28;20465;-77
2021/07/07 12:42:13;;;;;;;1.85;0.80;;;21.30;99.90;;;;;;4995694;28;20554;-77
2021/07/07 12:44:43;;;;;;;2.30;0.98;;;21.40;99.90;;;;;;4995212;28;20057;-77
2021/07/07 12:47:15;;;;;;;2.72;1.10;;;21.60;99.90;;;;;;4995682;28;20093;-76
2021/07/07 12:49:50;;;;;;;2.25;1.10;;;21.70;99.90;;;;;;4995539;28;20171;-78
2021/07/07 12:52:24;;;;;;;2.60;1.23;;;21.80;99.90;;;;;;4995458;28;20086;-79
2021/07/07 12:55:06;;;;;;;2.22;0.90;;;21.80;99.90;;;;;;4999609;28;20129;-76
2021/07/07 12:57:55;;;;;;;1.98;0.80;;;21.80;99.90;;;;;;5014285;28;20129;-78